Time;durP1;ratioP1;P1;durP2;ratioP2;P2;SDS_P1;SDS_P2;PMS_P1;PMS_P2;Temp;Humidity;BMP_temperature;BMP_pressure;BME280_temperature;BME280_humidity;BME280_pressure;Samples;Min_cycle;Max_cycle;Signal;HPM_P1;HPM_P2
2022/09/09 00:01:30;;;;;;;2.90;1.48;;;;;;;8.42;59.74;100149.38;5015071;28;20410;-70
2022/09/09 00:04:03;;;;;;;3.00;1.10;;;;;;;8.36;59.80;100153.38;5014828;28;20073;-69
2022/09/09 00:06:35;;;;;;;2.97;1.52;;;;;;;8.32;59.42;100152.31;5013855;28;20571;-69
2022/09/09 00:09:12;;;;;;;4.10;1.45;;;;;;;8.35;59.64;100162.00;4997079;28;20087;-69
2022/09/09 00:11:58;;;;;;;3.45;1.60;;;;;;;8.32;59.77;100146.78;5013386;28;20116;-69
2022/09/09 00:15:12;;;;;;;3.28;1.60;;;;;;;8.26;59.45;100150.75;5014709;28;20464;-69
2022/09/09 00:17:56;;;;;;;3.45;1.33;;;;;;;8.25;59.67;100159.38;4973663;28;20109;-69
2022/09/09 00:20:35;;;;;;;6.15;1.52;;;;;;;8.22;60.44;100159.94;4973553;28;20055;-69
2022/09/09 00:23:19;;;;;;;2.83;1.30;;;;;;;8.20;60.30;100162.22;5003560;28;20116;-69
2022/09/09 00:25:53;;;;;;;3.63;1.25;;;;;;;8.18;60.45;100165.28;5014731;28;20108;-70
2022/09/09 00:28:24;;;;;;;4.85;1.30;;;;;;;8.18;60.03;100158.91;5014172;28;20053;-69
2022/09/09 00:30:51;;;;;;;2.67;1.20;;;;;;;8.17;60.01;100162.81;5014333;28;20064;-69
2022/09/09 00:33:22;;;;;;;2.58;1.00;;;;;;;8.16;60.34;100158.38;5014037;28;20136;-69
2022/09/09 00:35:58;;;;;;;2.47;1.38;;;;;;;8.14;59.75;100157.88;5014511;28;20453;-69
2022/09/09 00:38:41;;;;;;;7.28;1.70;;;;;;;8.09;60.14;100164.31;5014706;28;20062;-69
2022/09/09 00:41:14;;;;;;;4.43;1.30;;;;;;;8.03;60.34;100173.00;5013949;28;20049;-70
2022/09/09 00:43:42;;;;;;;4.03;1.50;;;;;;;7.99;60.34;100177.53;5014094;28;20057;-70
2022/09/09 00:46:25;;;;;;;3.47;1.40;;;;;;;7.98;60.21;100171.16;5014262;28;20050;-70
2022/09/09 00:49:09;;;;;;;4.63;1.48;;;;;;;7.94;60.91;100175.66;5014312;28;20080;-70
2022/09/09 00:51:46;;;;;;;3.08;1.38;;;;;;;7.95;60.84;100177.28;5012847;28;20505;-70
2022/09/09 00:54:37;;;;;;;6.10;1.83;;;;;;;7.95;60.70;100182.00;5014172;28;20509;-69
2022/09/09 00:57:23;;;;;;;2.50;1.50;;;;;;;7.92;61.25;100183.44;5013790;28;20058;-70
2022/09/09 01:00:19;;;;;;;2.55;1.38;;;;;;;7.95;60.94;100188.38;5012771;28;20054;-68
2022/09/09 01:03:14;;;;;;;3.17;1.40;;;;;;;7.95;60.93;100193.91;5011758;28;20572;-70
2022/09/09 01:06:16;;;;;;;3.58;1.20;;;;;;;7.93;61.12;100193.38;5012796;28;20398;-70
2022/09/09 01:09:11;;;;;;;2.47;1.52;;;;;;;7.94;60.76;100200.59;5006498;28;20085;-70
2022/09/09 01:12:01;;;;;;;2.25;1.30;;;;;;;7.90;61.32;100191.19;5012245;28;20067;-69
2022/09/09 01:14:34;;;;;;;3.90;1.83;;;;;;;7.91;61.54;100192.88;5009494;28;20050;-68
2022/09/09 01:17:22;;;;;;;1.85;1.02;;;;;;;7.93;61.29;100200.88;4993693;28;20069;-68
2022/09/09 01:20:08;;;;;;;2.83;1.50;;;;;;;7.88;61.33;100196.25;4993809;28;20607;-68
2022/09/09 01:22:50;;;;;;;10.05;3.70;;;;;;;7.90;61.41;100191.19;5008537;28;20053;-68
2022/09/09 01:25:31;;;;;;;4.00;1.50;;;;;;;7.93;61.57;100201.69;5009416;28;20085;-68
2022/09/09 01:28:08;;;;;;;5.22;1.98;;;;;;;7.91;61.67;100208.66;4993411;28;20140;-68
2022/09/09 01:30:38;;;;;;;3.22;1.63;;;;;;;7.88;61.70;100210.09;4992242;28;20356;-68
2022/09/09 01:33:12;;;;;;;2.65;1.23;;;;;;;7.92;61.88;100205.59;4993294;28;20592;-68
2022/09/09 01:36:04;;;;;;;5.88;1.85;;;;;;;7.88;61.82;100210.09;4993551;28;20125;-68
2022/09/09 01:38:32;;;;;;;6.03;1.55;;;;;;;7.72;62.11;100208.63;4993595;28;20566;-69
2022/09/09 01:40:59;;;;;;;4.60;1.48;;;;;;;7.65;62.43;100210.94;4993155;28;20133;-69
2022/09/09 01:43:28;;;;;;;4.03;1.90;;;;;;;7.64;62.74;100220.34;5008228;28;20050;-69
2022/09/09 01:45:58;;;;;;;2.80;1.20;;;;;;;7.64;61.98;100219.56;4993513;28;20053;-68
2022/09/09 01:48:26;;;;;;;5.53;1.75;;;;;;;7.61;62.59;100217.38;4993716;28;20054;-68
2022/09/09 01:50:53;;;;;;;3.83;1.67;;;;;;;7.58;62.29;100227.09;4992538;28;20046;-68
2022/09/09 01:53:21;;;;;;;3.63;1.60;;;;;;;7.55;62.85;100227.69;4992874;28;20049;-68
2022/09/09 01:56:00;;;;;;;2.45;1.35;;;;;;;7.52;62.71;100224.69;4993417;28;20057;-67
2022/09/09 01:58:45;;;;;;;3.25;1.70;;;;;;;7.45;63.27;100233.34;4993091;28;20058;-69
2022/09/09 02:01:41;;;;;;;5.22;1.83;;;;;;;7.41;63.38;100232.31;5009173;28;20053;-68
2022/09/09 02:04:34;;;;;;;3.88;1.33;;;;;;;7.34;63.26;100238.19;5012586;28;20088;-67
2022/09/09 02:07:01;;;;;;;4.70;1.35;;;;;;;7.24;63.38;100232.78;4997183;28;20057;-68
2022/09/09 02:09:30;;;;;;;3.50;1.88;;;;;;;7.26;63.63;100235.25;5013108;28;20100;-67
2022/09/09 02:12:11;;;;;;;6.05;2.08;;;;;;;7.28;63.92;100233.00;5012070;28;20434;-67
2022/09/09 02:14:46;;;;;;;2.40;1.42;;;;;;;7.29;63.93;100240.19;5012789;28;20050;-67
2022/09/09 02:17:20;;;;;;;3.95;1.90;;;;;;;7.22;64.27;100239.69;5012753;28;20049;-67
2022/09/09 02:19:54;;;;;;;4.65;1.70;;;;;;;7.21;64.43;100238.91;5012900;28;20050;-69
2022/09/09 02:22:24;;;;;;;4.22;1.65;;;;;;;7.26;64.15;100241.59;5011122;28;20100;-68
2022/09/09 02:24:55;;;;;;;5.45;1.88;;;;;;;7.27;64.32;100242.44;5012372;28;20098;-68
2022/09/09 02:27:22;;;;;;;4.05;2.10;;;;;;;7.30;64.00;100247.38;5011553;28;20046;-68
2022/09/09 02:29:54;;;;;;;2.97;1.58;;;;;;;7.28;64.46;100250.44;5012971;28;20112;-68
2022/09/09 02:32:24;;;;;;;4.75;2.08;;;;;;;7.31;64.02;100260.06;5012194;28;20050;-68
2022/09/09 02:34:59;;;;;;;5.20;2.17;;;;;;;7.33;64.39;100252.31;5012277;28;20092;-68
2022/09/09 02:37:31;;;;;;;3.05;1.58;;;;;;;7.32;64.45;100261.75;5012696;28;20064;-68
2022/09/09 02:39:58;;;;;;;2.60;1.40;;;;;;;7.31;64.52;100265.63;5012806;28;20591;-67
2022/09/09 02:42:25;;;;;;;3.55;1.75;;;;;;;7.35;64.45;100261.16;5012327;28;20046;-67
2022/09/09 02:44:55;;;;;;;4.38;2.00;;;;;;;7.38;64.50;100263.34;5012461;28;20093;-67
2022/09/09 02:47:39;;;;;;;3.97;1.42;;;;;;;7.39;64.68;100262.22;5012145;28;20049;-68
2022/09/09 02:50:13;;;;;;;3.15;1.83;;;;;;;7.33;64.35;100268.91;5012679;28;20053;-68
2022/09/09 02:53:07;;;;;;;5.70;1.70;;;;;;;7.25;64.74;100261.25;5012107;28;20046;-68
2022/09/09 02:55:46;;;;;;;3.17;1.70;;;;;;;7.19;64.71;100279.03;5011499;28;20492;-68
2022/09/09 02:58:19;;;;;;;7.65;1.95;;;;;;;7.12;65.14;100279.41;5011922;28;20465;-68
2022/09/09 03:00:48;;;;;;;3.55;1.58;;;;;;;7.05;65.10;100283.63;5012591;28;20041;-67
2022/09/09 03:03:18;;;;;;;3.80;1.58;;;;;;;7.00;65.48;100280.91;5013714;28;20060;-68
2022/09/09 03:05:46;;;;;;;4.20;1.67;;;;;;;6.93;65.56;100269.34;5016102;28;20081;-68
2022/09/09 03:08:13;;;;;;;2.90;1.75;;;;;;;6.93;65.68;100269.34;5015913;28;20089;-68
2022/09/09 03:10:40;;;;;;;2.97;1.85;;;;;;;6.90;65.64;100287.34;5016107;28;20049;-69
2022/09/09 03:13:07;;;;;;;2.47;1.35;;;;;;;6.85;65.66;100278.28;5015263;28;20122;-68
2022/09/09 03:15:35;;;;;;;3.38;1.88;;;;;;;6.83;66.30;100291.56;5015502;28;20046;-67
2022/09/09 03:18:02;;;;;;;6.90;2.00;;;;;;;6.77;66.54;100287.19;5015506;28;20053;-68
2022/09/09 03:20:29;;;;;;;4.15;2.13;;;;;;;6.74;66.72;100287.75;5015414;28;20049;-68
2022/09/09 03:22:57;;;;;;;3.22;1.55;;;;;;;6.73;66.27;100288.88;5015575;28;20088;-67
2022/09/09 03:25:24;;;;;;;5.10;1.67;;;;;;;6.72;66.63;100290.00;5014019;28;20569;-69
2022/09/09 03:27:54;;;;;;;3.35;1.80;;;;;;;6.69;66.42;100293.34;5015063;28;20092;-68
2022/09/09 03:30:22;;;;;;;4.60;1.80;;;;;;;6.69;66.36;100291.38;5015201;28;20069;-68
2022/09/09 03:32:50;;;;;;;7.45;1.83;;;;;;;6.70;66.57;100292.22;5014037;28;20050;-68
2022/09/09 03:35:16;;;;;;;3.40;1.73;;;;;;;6.75;66.55;100300.50;5015330;28;20449;-68
2022/09/09 03:37:44;;;;;;;3.47;1.55;;;;;;;6.75;66.43;100298.53;5015301;28;20049;-67
2022/09/09 03:40:11;;;;;;;3.83;1.67;;;;;;;6.74;67.26;100304.34;5015206;28;20449;-67
2022/09/09 03:42:39;;;;;;;8.40;1.73;;;;;;;6.75;67.47;100306.03;5015167;28;20529;-69
2022/09/09 03:45:09;;;;;;;12.63;2.00;;;;;;;6.77;67.17;100309.31;5015887;28;20103;-69
2022/09/09 03:47:36;;;;;;;4.32;1.77;;;;;;;6.80;66.68;100308.72;5014721;28;20053;-69
2022/09/09 03:50:07;;;;;;;4.88;1.50;;;;;;;6.84;67.17;100309.81;5015072;28;20049;-68
2022/09/09 03:52:39;;;;;;;3.33;1.65;;;;;;;6.86;66.93;100313.09;5014877;28;20407;-68
2022/09/09 03:55:07;;;;;;;3.10;1.92;;;;;;;6.86;66.82;100324.16;5015042;28;20092;-67
2022/09/09 03:57:35;;;;;;;3.80;1.77;;;;;;;6.91;67.15;100321.34;5014786;28;20452;-68
2022/09/09 04:00:08;;;;;;;3.08;1.70;;;;;;;6.92;66.84;100315.53;5014885;28;20073;-69
2022/09/09 04:02:34;;;;;;;5.43;2.00;;;;;;;6.98;66.97;100316.31;5014782;28;20050;-69
2022/09/09 04:05:01;;;;;;;8.00;1.90;;;;;;;7.03;66.54;100324.56;5014736;28;20046;-68
2022/09/09 04:07:29;;;;;;;3.08;1.75;;;;;;;7.07;66.66;100320.09;5015007;28;20041;-68
2022/09/09 04:09:56;;;;;;;3.40;1.92;;;;;;;7.10;66.58;100320.34;5015061;28;20053;-67
2022/09/09 04:12:23;;;;;;;3.35;1.70;;;;;;;7.12;66.63;100329.19;5009664;28;20557;-68
2022/09/09 04:14:50;;;;;;;3.15;1.88;;;;;;;7.11;66.45;100319.22;4994085;28;20053;-68
2022/09/09 04:17:17;;;;;;;3.97;1.70;;;;;;;7.11;66.73;100326.72;4994902;28;20085;-69
2022/09/09 04:19:46;;;;;;;4.28;2.30;;;;;;;7.12;66.91;100329.19;4994754;28;20050;-69
2022/09/09 04:22:13;;;;;;;3.58;1.75;;;;;;;7.19;66.29;100335.19;4995110;28;20046;-68
2022/09/09 04:24:39;;;;;;;4.57;1.92;;;;;;;7.21;66.42;100343.22;4995098;28;20046;-68
2022/09/09 04:27:11;;;;;;;3.00;1.63;;;;;;;7.21;66.14;100332.13;4994814;28;20136;-69
2022/09/09 04:29:38;;;;;;;3.75;1.88;;;;;;;7.23;66.00;100335.44;4994879;28;20050;-69
2022/09/09 04:32:05;;;;;;;7.10;1.98;;;;;;;7.30;66.06;100328.47;4994781;28;20590;-68
2022/09/09 04:34:32;;;;;;;4.07;1.88;;;;;;;7.42;65.89;100330.81;4994662;28;20425;-69
2022/09/09 04:37:01;;;;;;;4.30;1.80;;;;;;;7.47;65.76;100337.13;4996122;28;20502;-68
2022/09/09 04:39:27;;;;;;;5.15;2.15;;;;;;;7.53;65.25;100340.69;5014275;28;20568;-69
2022/09/09 04:41:55;;;;;;;4.43;1.77;;;;;;;7.62;65.36;100332.53;5013942;28;20077;-70
2022/09/09 04:44:22;;;;;;;7.07;2.10;;;;;;;7.68;65.20;100339.66;5014195;28;20502;-70
2022/09/09 04:46:49;;;;;;;2.78;1.73;;;;;;;7.70;65.04;100335.50;5014240;28;20446;-69
2022/09/09 04:49:16;;;;;;;5.40;2.05;;;;;;;7.73;64.81;100343.22;5013765;28;20524;-70
2022/09/09 04:51:43;;;;;;;12.23;2.15;;;;;;;7.79;65.10;100344.81;5014037;28;20054;-70
2022/09/09 04:54:10;;;;;;;9.80;2.15;;;;;;;7.87;64.77;100341.38;5014175;28;20496;-69
2022/09/09 04:56:37;;;;;;;5.32;2.03;;;;;;;7.99;64.53;100343.75;5014496;28;20054;-70
2022/09/09 04:59:04;;;;;;;3.65;1.88;;;;;;;8.05;64.20;100348.91;5013994;28;20567;-69
2022/09/09 05:01:32;;;;;;;6.70;2.25;;;;;;;8.10;63.97;100350.78;5013895;28;20100;-71
2022/09/09 05:04:01;;;;;;;7.75;2.13;;;;;;;8.12;63.69;100348.56;5013351;28;20119;-69
2022/09/09 05:06:31;;;;;;;8.73;2.20;;;;;;;8.18;63.28;100350.97;5013549;28;20050;-68
2022/09/09 05:09:00;;;;;;;9.07;2.28;;;;;;;8.23;63.24;100355.66;5012782;28;20057;-69
2022/09/09 05:11:30;;;;;;;6.73;2.40;;;;;;;8.31;63.26;100358.56;5012977;28;20066;-68
2022/09/09 05:13:57;;;;;;;;;;;;;;;8.31;62.66;100363.28;5013790;28;20050;-69
2022/09/09 05:16:24;;;;;;;4.45;1.77;;;;;;;8.33;62.37;100364.66;5013213;28;20028;-69
2022/09/09 05:18:51;;;;;;;7.43;1.70;;;;;;;8.40;62.59;100367.03;5013700;28;20104;-69
2022/09/09 05:21:21;;;;;;;4.78;1.75;;;;;;;8.52;62.31;100370.19;5013370;28;20104;-68
2022/09/09 05:23:48;;;;;;;3.97;1.87;;;;;;;8.60;61.83;100367.59;5013650;28;20049;-68
2022/09/09 05:26:18;;;;;;;4.00;2.33;;;;;;;8.71;61.91;100373.81;5012945;28;20528;-69
2022/09/09 05:28:45;;;;;;;;;;;;;;;8.74;61.69;100374.00;5012277;28;20480;-69
2022/09/09 05:31:14;;;;;;;4.38;1.80;;;;;;;8.85;61.15;100375.53;5013009;28;20355;-69
2022/09/09 05:33:43;;;;;;;3.75;2.10;;;;;;;9.03;60.60;100369.13;5012820;28;20050;-69
2022/09/09 05:36:16;;;;;;;9.77;2.58;;;;;;;9.13;59.85;100366.19;5013027;28;20071;-68
2022/09/09 05:38:43;;;;;;;12.55;1.90;;;;;;;9.19;60.38;100364.97;5012709;28;20053;-67
2022/09/09 05:41:12;;;;;;;7.63;3.15;;;;;;;9.32;59.72;100359.78;5010549;28;20096;-67
2022/09/09 05:43:39;;;;;;;6.68;2.05;;;;;;;9.39;59.10;100362.97;5011124;28;20053;-67
2022/09/09 05:46:07;;;;;;;12.70;2.08;;;;;;;9.49;58.62;100365.56;5011604;28;20394;-67
2022/09/09 05:48:37;;;;;;;3.63;1.80;;;;;;;9.65;58.21;100358.59;5010575;28;20064;-69
2022/09/09 05:51:09;;;;;;;4.43;1.60;;;;;;;9.91;57.46;100359.72;5009669;28;20064;-67
2022/09/09 05:53:36;;;;;;;6.75;1.98;;;;;;;10.09;56.26;100356.88;5010909;28;20085;-68
2022/09/09 05:56:04;;;;;;;4.10;1.60;;;;;;;10.55;54.98;100359.50;5012729;28;20476;-68
2022/09/09 05:58:32;;;;;;;3.65;1.48;;;;;;;10.60;54.54;100367.75;5003366;28;20085;-67
2022/09/09 06:01:04;;;;;;;2.30;1.33;;;;;;;11.16;53.44;100376.41;5011345;28;20057;-67
2022/09/09 06:03:31;;;;;;;7.53;1.40;;;;;;;12.33;50.62;100367.38;5009850;28;20057;-68
2022/09/09 06:06:00;;;;;;;2.75;1.33;;;;;;;13.35;48.24;100377.84;5011458;28;20042;-69
2022/09/09 06:08:28;;;;;;;8.55;1.52;;;;;;;13.44;47.96;100371.06;5011496;28;20049;-68
2022/09/09 06:11:02;;;;;;;3.22;1.45;;;;;;;15.17;44.55;100365.06;5001771;28;20050;-68
2022/09/09 06:13:30;;;;;;;3.42;1.40;;;;;;;17.22;39.31;100366.91;5011299;28;20049;-68
2022/09/09 06:15:58;;;;;;;3.08;1.10;;;;;;;17.12;38.59;100375.03;5010884;28;20042;-68
2022/09/09 06:18:25;;;;;;;8.05;1.45;;;;;;;16.61;39.00;100367.41;5011944;28;20069;-68
2022/09/09 06:20:57;;;;;;;7.43;1.42;;;;;;;16.18;40.17;100380.03;5011754;28;20034;-68
2022/09/09 06:23:25;;;;;;;4.93;1.55;;;;;;;15.78;40.95;100379.00;5010045;28;20497;-69
2022/09/09 06:26:00;;;;;;;3.80;2.15;;;;;;;15.43;41.26;100383.34;5011283;28;20125;-69
2022/09/09 06:28:27;;;;;;;6.18;1.10;;;;;;;15.24;41.30;100385.78;5011826;28;20478;-68
2022/09/09 06:30:59;;;;;;;2.80;1.02;;;;;;;16.68;38.94;100384.50;5011474;28;20058;-68
2022/09/09 06:33:30;;;;;;;6.65;1.50;;;;;;;18.58;35.19;100379.50;5012300;28;20046;-69
2022/09/09 06:35:59;;;;;;;3.17;1.08;;;;;;;17.63;36.55;100388.22;5012868;28;20428;-69
2022/09/09 06:38:26;;;;;;;5.43;1.33;;;;;;;16.75;37.36;100390.34;5014410;28;20509;-69
2022/09/09 06:40:58;;;;;;;1.60;0.70;;;;;;;15.86;38.01;100386.50;5006597;28;20064;-69
2022/09/09 06:43:26;;;;;;;10.27;1.20;;;;;;;15.33;38.74;100388.50;5012753;28;20104;-68
2022/09/09 06:45:57;;;;;;;2.40;0.75;;;;;;;14.81;39.34;100392.91;5014868;28;20049;-70
2022/09/09 06:48:27;;;;;;;1.85;0.80;;;;;;;14.36;39.92;100398.28;5014404;28;20045;-69
2022/09/09 06:51:28;;;;;;;2.78;0.65;;;;;;;14.27;40.19;100394.69;5015186;28;20452;-67
2022/09/09 06:53:58;;;;;;;1.35;0.80;;;;;;;14.43;39.41;100398.56;5003000;28;20050;-67
2022/09/09 06:56:45;;;;;;;4.10;1.67;;;;;;;14.19;39.93;100398.31;5014171;28;20077;-69
2022/09/09 06:59:12;;;;;;;4.15;1.20;;;;;;;13.67;41.00;100408.00;5012215;28;20056;-69
2022/09/09 07:01:41;;;;;;;1.13;0.75;;;;;;;13.56;41.48;100412.34;5014511;28;20112;-70
2022/09/09 07:04:10;;;;;;;0.95;0.52;;;;;;;13.14;41.53;100411.19;5014851;28;20052;-68
2022/09/09 07:06:43;;;;;;;2.27;0.80;;;;;;;13.75;40.35;100409.97;5013669;28;20657;-68
2022/09/09 07:09:12;;;;;;;7.43;0.90;;;;;;;14.28;39.56;100394.38;5015921;28;20276;-68
2022/09/09 07:11:45;;;;;;;4.25;0.95;;;;;;;14.15;39.43;100408.56;5014074;28;20065;-70
2022/09/09 07:14:13;;;;;;;2.28;1.00;;;;;;;13.98;40.29;100414.19;5013534;28;20049;-68
2022/09/09 07:16:41;;;;;;;9.88;1.70;;;;;;;13.71;40.53;100420.19;5014723;28;20046;-68
2022/09/09 07:19:09;;;;;;;3.35;1.10;;;;;;;13.33;40.89;100425.69;5014306;28;20563;-69
2022/09/09 07:21:36;;;;;;;1.67;0.80;;;;;;;13.10;41.23;100428.94;5014624;28;20049;-69
2022/09/09 07:24:07;;;;;;;3.15;0.90;;;;;;;13.27;40.74;100427.00;5014103;28;20500;-69
2022/09/09 07:26:34;;;;;;;5.32;0.98;;;;;;;13.15;40.87;100434.38;5014567;28;20046;-69
2022/09/09 07:29:02;;;;;;;1.27;0.70;;;;;;;12.87;41.09;100429.06;5014291;28;20176;-70
2022/09/09 07:31:32;;;;;;;2.38;1.05;;;;;;;13.06;40.98;100437.19;5014383;28;20057;-70
2022/09/09 07:34:00;;;;;;;;;;;;;;;13.28;40.28;100438.97;5014047;28;20054;-68
2022/09/09 07:36:30;;;;;;;4.15;0.80;;;;;;;14.58;38.37;100431.59;5012673;28;19929;-68
2022/09/09 07:39:04;;;;;;;2.60;0.98;;;;;;;14.90;37.70;100436.50;5013398;28;20057;-68
2022/09/09 07:41:41;;;;;;;1.52;0.70;;;;;;;14.53;37.80;100442.97;5013832;28;20041;-68
2022/09/09 07:44:14;;;;;;;2.08;0.93;;;;;;;14.17;38.61;100448.19;5014158;28;20077;-69
2022/09/09 07:46:42;;;;;;;1.58;0.80;;;;;;;14.05;38.87;100448.06;5014661;28;20046;-68
2022/09/09 07:49:10;;;;;;;4.30;1.38;;;;;;;14.14;38.36;100443.28;5014424;28;20136;-68
2022/09/09 07:51:40;;;;;;;3.95;0.98;;;;;;;14.85;37.85;100445.09;5014701;28;20080;-69
2022/09/09 07:54:10;;;;;;;1.52;0.80;;;;;;;14.77;37.10;100457.16;5014656;28;20045;-68
2022/09/09 07:56:39;;;;;;;;;;;;;;;14.25;38.31;100447.38;5014679;28;20107;-69
2022/09/09 07:59:07;;;;;;;6.55;0.70;;;;;;;13.92;38.15;100460.28;5014283;28;19929;-68
2022/09/09 08:01:38;;;;;;;3.28;0.90;;;;;;;13.62;38.57;100455.75;5012114;28;20056;-68
2022/09/09 08:04:09;;;;;;;3.05;0.95;;;;;;;13.53;39.01;100468.91;5014711;28;20516;-70
2022/09/09 08:06:39;;;;;;;1.75;0.80;;;;;;;13.56;39.08;100468.25;5014159;28;20570;-69
2022/09/09 08:09:08;;;;;;;5.82;0.80;;;;;;;13.56;38.50;100468.25;5005246;28;20536;-68
2022/09/09 08:11:35;;;;;;;3.47;0.90;;;;;;;14.23;37.74;100458.06;5012584;28;20540;-69
2022/09/09 08:14:07;;;;;;;3.95;0.80;;;;;;;17.01;33.68;100449.78;5013847;28;20049;-68
2022/09/09 08:16:41;;;;;;;2.00;0.70;;;;;;;16.93;33.06;100448.75;5013739;28;20481;-69
2022/09/09 08:19:08;;;;;;;2.08;0.90;;;;;;;17.37;32.30;100455.34;5014237;28;20050;-67
2022/09/09 08:21:38;;;;;;;1.55;0.75;;;;;;;19.59;29.62;100448.75;5014043;28;20177;-69
2022/09/09 08:24:07;;;;;;;2.65;1.05;;;;;;;22.59;25.87;100451.09;5014419;28;20050;-70
2022/09/09 08:26:37;;;;;;;3.85;0.95;;;;;;;26.08;22.41;100448.72;5012818;28;20132;-70
2022/09/09 08:29:06;;;;;;;1.73;1.10;;;;;;;28.93;20.19;100448.56;5012997;28;20054;-69
2022/09/09 08:31:36;;;;;;;2.70;1.10;;;;;;;33.44;16.25;100443.81;5012222;28;20092;-69
2022/09/09 08:34:05;;;;;;;1.15;0.60;;;;;;;32.31;16.34;100454.53;5012823;28;20060;-69
2022/09/09 08:36:40;;;;;;;0.93;0.50;;;;;;;29.14;18.93;100451.09;5012575;28;20502;-73
2022/09/09 08:39:09;;;;;;;1.83;0.60;;;;;;;25.14;22.19;100455.50;5013430;28;20054;-68
2022/09/09 08:42:06;;;;;;;1.20;0.70;;;;;;;25.64;21.81;100457.00;5011947;28;20042;-69
2022/09/09 08:44:57;;;;;;;3.00;0.90;;;;;;;28.38;18.74;100446.94;5011702;28;20100;-70
2022/09/09 08:47:50;;;;;;;4.38;0.70;;;;;;;33.75;14.78;100443.09;5013130;28;20037;-69
2022/09/09 08:50:24;;;;;;;1.30;0.82;;;;;;;37.67;12.05;100435.28;4975624;28;20069;-68
2022/09/09 08:53:16;;;;;;;2.42;1.00;;;;;;;40.37;10.07;100432.94;5012574;28;20132;-69
2022/09/09 08:55:58;;;;;;;1.98;0.82;;;;;;;41.23;9.67;100436.31;5014027;28;20056;-69
2022/09/09 08:58:30;;;;;;;4.65;0.93;;;;;;;35.60;12.84;100442.56;5013996;28;20050;-69
2022/09/09 09:01:09;;;;;;;3.58;1.30;;;;;;;33.08;14.12;100443.41;5013543;28;20405;-70
2022/09/09 09:04:11;;;;;;;1.35;0.70;;;;;;;28.35;17.47;100450.66;5012916;28;20100;-70
2022/09/09 09:06:59;;;;;;;1.55;0.70;;;;;;;24.25;20.92;100455.81;5009927;28;20405;-70
2022/09/09 09:09:48;;;;;;;2.53;0.80;;;;;;;21.63;23.59;100464.50;5012033;28;20050;-70
2022/09/09 09:12:23;;;;;;;0.90;0.60;;;;;;;20.55;24.64;100461.59;5011525;28;20058;-69
2022/09/09 09:14:50;;;;;;;3.33;0.80;;;;;;;19.86;25.41;100459.84;5012017;28;20038;-70
2022/09/09 09:17:19;;;;;;;2.30;0.80;;;;;;;19.19;25.85;100456.72;5012046;28;20038;-70
2022/09/09 09:19:50;;;;;;;2.03;0.90;;;;;;;18.53;26.78;100467.94;5011988;28;20485;-69
2022/09/09 09:22:25;;;;;;;4.72;1.08;;;;;;;24.53;20.68;100453.00;5009566;28;20065;-70
2022/09/09 09:25:03;;;;;;;8.63;2.40;;;;;;;28.23;17.66;100445.53;5007713;28;20041;-69
2022/09/09 09:27:32;;;;;;;4.38;1.30;;;;;;;33.47;13.73;100435.50;5006535;28;20050;-69
2022/09/09 09:30:01;;;;;;;6.78;1.55;;;;;;;37.00;11.67;100440.88;5012728;28;20104;-69
2022/09/09 09:32:54;;;;;;;3.55;0.65;;;;;;;33.31;13.55;100447.97;5010815;28;20119;-69
2022/09/09 09:35:21;;;;;;;7.53;0.85;;;;;;;29.84;16.12;100450.56;5012705;28;20049;-68
2022/09/09 09:37:48;;;;;;;1.02;0.68;;;;;;;27.98;16.88;100447.09;5013095;28;20458;-70
2022/09/09 09:40:35;;;;;;;3.00;0.65;;;;;;;25.42;19.21;100455.47;5009385;28;20049;-70
2022/09/09 09:43:08;;;;;;;5.85;0.90;;;;;;;23.74;21.04;100452.34;5012915;28;20092;-70
2022/09/09 09:45:43;;;;;;;4.47;0.80;;;;;;;22.57;21.76;100452.69;5012870;28;20152;-70
2022/09/09 09:48:30;;;;;;;1.88;0.93;;;;;;;21.19;23.15;100443.66;5012940;28;20084;-68
2022/09/09 09:51:02;;;;;;;2.08;0.77;;;;;;;19.93;24.84;100448.66;5012986;28;20524;-68
2022/09/09 09:53:35;;;;;;;3.42;0.65;;;;;;;18.83;26.18;100449.38;5012219;28;20111;-70
2022/09/09 09:56:07;;;;;;;5.03;0.70;;;;;;;17.99;27.24;100453.59;5012728;28;20128;-69
2022/09/09 09:58:44;;;;;;;1.27;0.80;;;;;;;17.23;28.65;100452.09;5012738;28;20073;-70
2022/09/09 10:01:33;;;;;;;1.75;0.70;;;;;;;16.52;29.67;100460.22;5012999;28;20065;-71
2022/09/09 10:04:13;;;;;;;1.52;0.70;;;;;;;16.00;30.40;100456.34;5012739;28;20052;-71
2022/09/09 10:06:40;;;;;;;;;;;;;;;15.59;30.64;100462.03;5012807;28;20048;-69
2022/09/09 10:09:25;;;;;;;4.63;0.85;;;;;;;15.32;31.36;100449.38;5012570;28;19976;-70
2022/09/09 10:12:22;;;;;;;15.70;6.03;;;;;;;15.28;31.64;100453.22;5013099;28;20070;-69
2022/09/09 10:15:14;;;;;;;4.80;1.30;;;;;;;15.58;31.50;100464.03;5035448;28;20049;-71
2022/09/09 10:18:06;;;;;;;4.03;1.00;;;;;;;15.73;31.71;100463.41;5036420;28;20464;-72
2022/09/09 10:21:00;;;;;;;1.83;0.85;;;;;;;15.73;31.98;100460.59;5036930;28;20455;-72
2022/09/09 10:23:44;;;;;;;1.75;0.90;;;;;;;15.69;31.98;100461.63;5036500;28;20513;-69
2022/09/09 10:26:14;;;;;;;1.05;0.70;;;;;;;15.43;32.61;100459.06;5036282;28;20042;-69
2022/09/09 10:29:11;;;;;;;3.03;1.33;;;;;;;15.31;32.75;100458.13;5036550;28;20050;-73
2022/09/09 10:32:02;;;;;;;3.17;1.10;;;;;;;15.18;32.62;100457.22;5036313;28;20103;-70
2022/09/09 10:34:35;;;;;;;4.60;1.10;;;;;;;15.12;32.84;100461.41;5036082;28;20389;-70
2022/09/09 10:37:18;;;;;;;4.55;1.05;;;;;;;14.92;33.24;100467.78;5035636;28;20057;-70
2022/09/09 10:39:45;;;;;;;1.90;0.90;;;;;;;14.60;33.54;100463.69;5035825;28;20103;-69
2022/09/09 10:42:19;;;;;;;3.85;0.90;;;;;;;14.42;33.79;100472.50;5022133;28;20140;-70
2022/09/09 10:44:56;;;;;;;6.82;0.90;;;;;;;14.40;34.11;100477.63;5016409;28;20505;-69
2022/09/09 10:47:52;;;;;;;4.13;0.90;;;;;;;14.51;34.06;100462.09;5014807;28;20046;-69
2022/09/09 10:50:28;;;;;;;4.72;0.93;;;;;;;14.67;33.64;100457.56;5007747;28;20053;-71
2022/09/09 10:53:28;;;;;;;4.90;1.13;;;;;;;14.84;33.22;100462.25;5015784;28;20456;-70
2022/09/09 10:56:12;;;;;;;1.92;1.10;;;;;;;14.59;33.43;100455.63;5015921;28;20046;-69
2022/09/09 10:58:50;;;;;;;2.83;0.90;;;;;;;14.41;33.71;100465.25;5016128;28;20097;-69
2022/09/09 11:01:54;;;;;;;1.73;0.82;;;;;;;14.15;34.00;100475.72;5010058;28;20054;-67
2022/09/09 11:04:25;;;;;;;3.45;0.88;;;;;;;13.95;34.56;100470.81;4996658;28;20062;-69
2022/09/09 11:06:55;;;;;;;2.75;0.75;;;;;;;13.79;34.94;100478.06;4995764;28;20042;-69
2022/09/09 11:09:27;;;;;;;5.05;0.90;;;;;;;13.62;35.24;100483.69;4996343;28;20140;-69
2022/09/09 11:11:59;;;;;;;1.98;0.80;;;;;;;13.54;35.54;100470.53;4996572;28;20054;-69
2022/09/09 11:14:57;;;;;;;13.20;5.07;;;;;;;13.93;34.92;100462.75;5015782;28;20049;-68
2022/09/09 11:17:31;;;;;;;1.58;1.00;;;;;;;14.33;34.66;100466.13;5015531;28;20123;-68
2022/09/09 11:19:58;;;;;;;3.13;1.13;;;;;;;14.54;34.18;100459.44;5015564;28;20058;-67
2022/09/09 11:22:37;;;;;;;2.47;1.00;;;;;;;14.43;34.87;100472.19;5015191;28;20054;-69
2022/09/09 11:25:22;;;;;;;1.85;0.80;;;;;;;14.00;35.27;100473.41;5015647;28;20053;-69
2022/09/09 11:28:09;;;;;;;5.25;1.20;;;;;;;13.65;36.22;100474.66;5015253;28;20060;-68
2022/09/09 11:31:16;;;;;;;1.55;0.80;;;;;;;13.58;36.02;100477.94;5015465;28;20478;-71
2022/09/09 11:34:05;;;;;;;9.18;1.10;;;;;;;13.61;36.24;100479.25;5015085;28;20046;-69
2022/09/09 11:36:41;;;;;;;3.85;1.02;;;;;;;13.49;36.37;100484.66;5015185;28;20041;-68
2022/09/09 11:39:38;;;;;;;1.85;0.90;;;;;;;13.30;36.65;100481.38;5015201;28;20068;-69
2022/09/09 11:42:19;;;;;;;2.60;1.08;;;;;;;13.15;37.47;100479.91;5015450;28;20493;-68
2022/09/09 11:44:46;;;;;;;6.03;1.15;;;;;;;13.18;37.43;100478.41;5015598;28;20054;-69
2022/09/09 11:47:30;;;;;;;1.58;0.88;;;;;;;13.32;37.68;100473.50;5014842;28;20042;-68
2022/09/09 11:50:18;;;;;;;4.32;1.10;;;;;;;13.44;37.39;100470.88;5000606;28;20062;-69
2022/09/09 11:52:48;;;;;;;2.08;0.85;;;;;;;13.51;37.21;100477.63;5007625;28;20061;-68
2022/09/09 11:55:32;;;;;;;2.05;0.90;;;;;;;13.68;37.13;100462.81;5015203;28;20072;-68
2022/09/09 11:58:14;;;;;;;2.90;0.80;;;;;;;13.73;36.67;100468.19;5013465;28;20042;-69
2022/09/09 12:00:43;;;;;;;2.67;0.70;;;;;;;13.71;36.67;100467.72;5014753;28;20112;-69
2022/09/09 12:03:42;;;;;;;3.20;0.80;;;;;;;13.59;36.34;100464.78;5013584;28;20049;-69